createdAt,value
2017-11-28T00:01:37.210Z,5.60
2017-11-28T00:04:04.285Z,5.70
2017-11-28T00:06:31.536Z,5.60
2017-11-28T00:08:58.732Z,5.70
2017-11-28T00:11:25.827Z,5.70
2017-11-28T00:13:53.064Z,5.70
2017-11-28T00:16:20.106Z,5.70
2017-11-28T00:18:47.186Z,5.70
2017-11-28T00:21:14.263Z,5.70
2017-11-28T00:23:42.105Z,5.70
2017-11-28T00:26:09.344Z,5.70
2017-11-28T00:28:36.404Z,5.80
2017-11-28T00:31:03.476Z,5.70
2017-11-28T00:33:31.329Z,5.70
2017-11-28T00:35:58.400Z,5.60
2017-11-28T00:38:26.260Z,5.70
2017-11-28T00:40:54.130Z,5.70
2017-11-28T00:43:21.239Z,5.70
2017-11-28T00:45:48.340Z,5.70
2017-11-28T00:48:15.393Z,5.70
2017-11-28T00:50:42.673Z,5.70
2017-11-28T00:53:09.777Z,5.80
2017-11-28T00:55:36.867Z,5.80
2017-11-28T00:58:03.977Z,5.80
2017-11-28T01:00:32.019Z,5.80
2017-11-28T01:02:59.119Z,5.70
2017-11-28T01:05:26.177Z,5.80
2017-11-28T01:07:53.275Z,5.80
2017-11-28T01:10:21.126Z,5.90
2017-11-28T01:12:48.188Z,5.90
2017-11-28T01:15:15.332Z,5.90
2017-11-28T01:17:42.386Z,5.90
2017-11-28T01:20:09.457Z,5.90
2017-11-28T01:22:37.323Z,5.90
2017-11-28T01:25:05.165Z,5.90
2017-11-28T01:27:32.213Z,5.90
2017-11-28T01:29:59.276Z,5.90
2017-11-28T01:32:26.328Z,5.90
2017-11-28T01:34:54.168Z,6.00
2017-11-28T01:37:21.251Z,6.00
2017-11-28T01:39:49.056Z,6.00
2017-11-28T01:42:16.121Z,6.00
2017-11-28T01:44:43.209Z,6.00
2017-11-28T01:47:10.287Z,6.10
2017-11-28T01:49:37.324Z,6.20
2017-11-28T01:52:04.438Z,6.20
2017-11-28T01:54:31.576Z,6.20
2017-11-28T01:56:58.628Z,6.20
2017-11-28T01:59:25.701Z,6.20
2017-11-28T02:01:52.767Z,6.20
2017-11-28T02:04:20.607Z,6.30
2017-11-28T02:06:48.413Z,6.20
2017-11-28T02:09:15.530Z,6.20
2017-11-28T02:11:42.762Z,6.30
2017-11-28T02:14:09.826Z,6.20
2017-11-28T02:16:36.897Z,6.10
2017-11-28T02:19:04.744Z,6.20
2017-11-28T02:21:31.850Z,6.10
2017-11-28T02:23:58.914Z,6.10
2017-11-28T02:26:26.003Z,6.20
2017-11-28T02:28:53.874Z,6.10
2017-11-28T02:31:21.690Z,6.10
2017-11-28T02:33:48.735Z,6.10
2017-11-28T02:36:15.785Z,6.20
2017-11-28T02:38:42.851Z,6.20
2017-11-28T02:41:12.577Z,6.20
2017-11-28T02:43:39.636Z,6.20
2017-11-28T02:46:07.479Z,6.20
2017-11-28T02:48:34.542Z,6.20
2017-11-28T02:51:11.505Z,6.30
2017-11-28T02:53:38.569Z,6.30
2017-11-28T02:56:05.634Z,6.30
2017-11-28T02:58:37.048Z,6.30
2017-11-28T03:01:05.866Z,6.30
2017-11-28T03:03:32.913Z,6.30
2017-11-28T03:05:59.979Z,6.30
2017-11-28T03:08:27.814Z,6.30
2017-11-28T03:10:54.888Z,6.30
2017-11-28T03:13:33.508Z,6.30
2017-11-28T03:16:00.567Z,6.30
2017-11-28T03:18:38.280Z,6.30
2017-11-28T03:21:06.128Z,6.30
2017-11-28T03:23:34.688Z,6.50
2017-11-28T03:26:01.752Z,6.40
2017-11-28T03:28:35.324Z,6.50
2017-11-28T03:31:03.150Z,6.40
2017-11-28T03:33:30.198Z,6.50
2017-11-28T03:35:57.264Z,6.40
2017-11-28T03:38:24.354Z,6.40
2017-11-28T03:40:51.421Z,6.50
2017-11-28T03:43:19.259Z,6.50
2017-11-28T03:46:02.996Z,6.40
2017-11-28T03:48:30.071Z,6.40
2017-11-28T03:50:57.917Z,6.40
2017-11-28T03:53:24.976Z,6.40
2017-11-28T03:55:52.034Z,6.50
2017-11-28T03:58:19.844Z,6.60
2017-11-28T04:00:46.901Z,6.60
2017-11-28T04:03:13.989Z,6.60
2017-11-28T04:05:41.819Z,6.60
2017-11-28T04:08:08.885Z,6.60
2017-11-28T04:10:35.934Z,6.70
2017-11-28T04:13:03.012Z,6.70
2017-11-28T04:15:31.594Z,6.70
2017-11-28T04:17:59.426Z,6.70
2017-11-28T04:20:26.527Z,6.70
2017-11-28T04:22:53.581Z,6.70
2017-11-28T04:25:20.626Z,6.70
2017-11-28T04:27:47.674Z,6.70
2017-11-28T04:30:14.727Z,6.70
2017-11-28T04:32:41.774Z,6.70
2017-11-28T04:35:08.831Z,6.60
2017-11-28T04:37:35.912Z,6.70
2017-11-28T04:40:02.971Z,6.70
2017-11-28T04:42:30.058Z,6.70
2017-11-28T04:44:57.900Z,6.80
2017-11-28T04:47:25.035Z,6.80
2017-11-28T04:49:52.095Z,6.70
2017-11-28T04:52:19.164Z,6.80
2017-11-28T04:54:46.992Z,6.80
2017-11-28T04:57:14.055Z,6.80
2017-11-28T04:59:41.128Z,6.80
2017-11-28T05:02:08.958Z,6.70
2017-11-28T05:04:36.011Z,6.60
2017-11-28T05:07:03.076Z,6.70
2017-11-28T05:09:30.153Z,6.70
2017-11-28T05:11:57.261Z,6.70
2017-11-28T05:14:24.322Z,6.80
2017-11-28T05:16:51.386Z,6.80
2017-11-28T05:19:19.208Z,6.70
2017-11-28T05:21:46.246Z,6.70
2017-11-28T05:24:13.305Z,6.70
2017-11-28T05:26:40.378Z,6.70
2017-11-28T05:29:07.432Z,6.70
2017-11-28T05:31:34.503Z,6.70
2017-11-28T05:34:02.322Z,6.70
2017-11-28T05:36:29.484Z,6.70
2017-11-28T05:38:56.540Z,6.70
2017-11-28T05:41:23.598Z,6.70
2017-11-28T05:43:50.661Z,6.60
2017-11-28T05:46:18.476Z,6.70
2017-11-28T05:48:45.569Z,6.60
2017-11-28T05:51:13.449Z,6.60
2017-11-28T05:53:41.284Z,6.60
2017-11-28T05:56:08.355Z,6.60
2017-11-28T05:58:36.448Z,6.40
2017-11-28T06:01:04.294Z,6.50
2017-11-28T06:03:32.132Z,6.50
2017-11-28T06:05:59.192Z,6.50
2017-11-28T06:08:26.252Z,6.50
2017-11-28T06:10:54.109Z,6.50
2017-11-28T06:13:21.168Z,6.50
2017-11-28T06:15:48.999Z,6.50
2017-11-28T06:18:16.118Z,6.50
2017-11-28T06:20:43.174Z,6.50
2017-11-28T06:23:10.238Z,6.50
2017-11-28T06:25:37.292Z,6.50
2017-11-28T06:28:04.383Z,6.40
2017-11-28T06:30:31.454Z,6.30
2017-11-28T06:32:58.636Z,6.40
2017-11-28T06:35:25.720Z,6.40
2017-11-28T06:37:52.881Z,6.40
2017-11-28T06:40:20.748Z,6.40
2017-11-28T06:42:48.577Z,6.40
2017-11-28T06:45:15.667Z,6.40
2017-11-28T06:47:43.520Z,6.40
2017-11-28T06:50:10.561Z,6.40
2017-11-28T06:52:37.648Z,6.40
2017-11-28T06:55:04.719Z,6.50
2017-11-28T06:57:32.115Z,6.50
2017-11-28T07:00:01.813Z,6.50
2017-11-28T07:02:28.908Z,6.50
2017-11-28T07:04:55.981Z,6.60
2017-11-28T07:07:23.048Z,6.60
2017-11-28T07:09:50.169Z,6.60
2017-11-28T07:12:17.239Z,6.70
2017-11-28T07:14:44.304Z,6.60
2017-11-28T07:17:11.385Z,6.50
2017-11-28T07:19:39.220Z,6.50
2017-11-28T07:22:06.333Z,6.50
2017-11-28T07:24:33.480Z,6.50
2017-11-28T07:27:00.573Z,6.60
2017-11-28T07:29:27.683Z,6.60
2017-11-28T07:31:54.736Z,6.60
2017-11-28T07:34:21.787Z,6.70
2017-11-28T07:36:48.845Z,6.70
2017-11-28T07:39:15.948Z,6.60
2017-11-28T07:41:43.793Z,6.80
2017-11-28T07:44:10.849Z,6.80
2017-11-28T07:46:37.915Z,6.80
2017-11-28T07:49:04.984Z,6.70
2017-11-28T07:51:32.030Z,6.70
2017-11-28T07:53:59.122Z,6.70
2017-11-28T07:56:26.171Z,6.70
2017-11-28T07:58:53.242Z,6.70
2017-11-28T08:01:20.367Z,6.80
2017-11-28T08:03:47.655Z,6.80
2017-11-28T08:06:15.477Z,6.90
2017-11-28T08:08:42.540Z,6.90
2017-11-28T08:11:09.605Z,7.00
2017-11-28T08:13:36.677Z,7.00
2017-11-28T08:16:04.534Z,7.00
2017-11-28T08:18:32.372Z,7.00
2017-11-28T08:20:59.433Z,7.00
2017-11-28T08:23:27.274Z,7.00
2017-11-28T08:25:54.346Z,7.00
2017-11-28T08:28:21.436Z,7.10
2017-11-28T08:30:48.497Z,7.10
2017-11-28T08:33:15.556Z,7.10
2017-11-28T08:35:42.649Z,7.10
2017-11-28T08:38:09.722Z,7.10
2017-11-28T08:40:36.807Z,7.10
2017-11-28T08:43:03.869Z,7.10
2017-11-28T08:45:30.943Z,7.10
2017-11-28T08:47:58.168Z,7.20
2017-11-28T08:50:25.217Z,7.30
2017-11-28T08:52:52.271Z,7.20
2017-11-28T08:55:19.333Z,7.20
2017-11-28T08:57:46.404Z,7.30
2017-11-28T09:00:14.258Z,7.30
2017-11-28T09:02:41.306Z,7.30
2017-11-28T09:05:08.372Z,7.30
2017-11-28T09:07:36.307Z,7.30
2017-11-28T09:10:03.400Z,7.30
2017-11-28T09:12:31.236Z,7.40
2017-11-28T09:14:58.289Z,7.30
2017-11-28T09:17:25.357Z,7.40
2017-11-28T09:19:53.175Z,7.50
2017-11-28T09:22:20.241Z,7.40
2017-11-28T09:24:47.295Z,7.40
2017-11-28T09:27:14.354Z,7.40
2017-11-28T09:29:41.415Z,7.40
2017-11-28T09:32:09.227Z,7.40
2017-11-28T09:34:36.445Z,7.40
2017-11-28T09:37:03.487Z,7.50
2017-11-28T09:39:31.311Z,7.70
2017-11-28T09:41:58.390Z,7.70
2017-11-28T09:44:26.213Z,7.90
2017-11-28T09:46:53.266Z,7.80
2017-11-28T09:49:20.368Z,7.90
2017-11-28T09:51:47.427Z,7.90
2017-11-28T09:54:14.513Z,7.90
2017-11-28T09:56:41.590Z,7.90
2017-11-28T09:59:08.639Z,7.90
2017-11-28T10:01:35.749Z,7.90
2017-11-28T10:04:02.813Z,7.90
2017-11-28T10:06:29.860Z,7.70
2017-11-28T10:08:56.933Z,7.70
2017-11-28T10:11:24.765Z,7.50
2017-11-28T10:13:51.820Z,7.50
2017-11-28T10:16:18.873Z,7.60
2017-11-28T10:18:45.986Z,7.50
2017-11-28T10:21:13.057Z,7.60
2017-11-28T10:23:40.356Z,7.60
2017-11-28T10:26:08.194Z,7.70
2017-11-28T10:28:35.264Z,7.60
2017-11-28T10:31:02.331Z,7.70
2017-11-28T10:33:30.194Z,7.70
2017-11-28T10:35:58.960Z,7.80
2017-11-28T10:38:26.052Z,7.80
2017-11-28T10:40:53.152Z,7.80
2017-11-28T10:43:20.238Z,7.80
2017-11-28T10:45:48.057Z,8.00
2017-11-28T10:48:15.132Z,8.00
2017-11-28T10:50:42.198Z,8.10
2017-11-28T10:53:10.104Z,8.10
2017-11-28T10:55:37.158Z,8.10
2017-11-28T10:58:04.233Z,8.10
2017-11-28T11:00:31.292Z,8.20
2017-11-28T11:02:58.382Z,8.20
2017-11-28T11:05:25.506Z,8.30
2017-11-28T11:07:53.326Z,8.20
2017-11-28T11:10:20.405Z,8.20
2017-11-28T11:12:47.488Z,8.20
2017-11-28T11:15:14.549Z,8.10
2017-11-28T11:17:41.600Z,7.90
2017-11-28T11:20:08.660Z,7.90
2017-11-28T11:22:35.714Z,8.00
2017-11-28T11:25:02.807Z,7.90
2017-11-28T11:27:30.642Z,7.80
2017-11-28T11:29:57.695Z,7.80
2017-11-28T11:32:24.764Z,7.90
2017-11-28T11:34:51.847Z,7.80
2017-11-28T11:37:19.676Z,8.00
2017-11-28T11:39:46.756Z,7.90
2017-11-28T11:42:13.815Z,8.00
2017-11-28T11:44:40.862Z,8.10
2017-11-28T11:47:07.917Z,8.10
2017-11-28T11:49:35.004Z,8.20
2017-11-28T11:52:02.081Z,8.20
2017-11-28T11:54:29.912Z,8.10
2017-11-28T11:56:56.985Z,8.00
2017-11-28T11:59:24.075Z,8.00
2017-11-28T12:01:51.123Z,8.00
2017-11-28T12:04:18.165Z,8.10
2017-11-28T12:06:45.253Z,8.20
2017-11-28T12:09:12.329Z,8.20
2017-11-28T12:11:39.380Z,8.30
2017-11-28T12:14:06.952Z,8.10
2017-11-28T12:16:34.785Z,8.40
2017-11-28T12:19:01.871Z,8.40
2017-11-28T12:21:29.682Z,8.30
2017-11-28T12:23:56.736Z,8.30
2017-11-28T12:26:23.787Z,8.30
2017-11-28T12:28:51.000Z,8.30
2017-11-28T12:31:18.083Z,8.40
2017-11-28T12:33:45.185Z,8.40
2017-11-28T12:36:13.108Z,8.30
2017-11-28T12:38:40.223Z,8.30
2017-11-28T12:41:07.327Z,8.20
2017-11-28T12:43:34.410Z,8.20
2017-11-28T12:46:01.469Z,8.10
2017-11-28T12:48:28.523Z,8.20
2017-11-28T12:50:55.572Z,8.20
2017-11-28T12:53:22.623Z,8.10
2017-11-28T12:55:49.689Z,8.10
2017-11-28T12:58:16.763Z,8.20
2017-11-28T13:00:43.949Z,8.20
2017-11-28T13:03:11.021Z,8.40
2017-11-28T13:05:38.139Z,8.50
2017-11-28T13:08:06.007Z,8.50
2017-11-28T13:10:33.826Z,8.40
2017-11-28T13:13:00.921Z,8.40
2017-11-28T13:15:28.749Z,8.30
2017-11-28T13:17:55.815Z,8.30
2017-11-28T13:20:23.026Z,8.40
2017-11-28T13:22:50.085Z,8.40
2017-11-28T13:25:17.165Z,8.40
2017-11-28T13:27:44.360Z,8.30
2017-11-28T13:30:11.433Z,8.30
2017-11-28T13:32:38.492Z,8.20
2017-11-28T13:35:05.604Z,8.30
2017-11-28T13:37:32.706Z,8.20
2017-11-28T13:39:59.782Z,8.10
2017-11-28T13:42:27.601Z,8.00
2017-11-28T13:44:55.126Z,8.00
2017-11-28T13:47:22.183Z,8.00
2017-11-28T13:49:49.239Z,8.00
2017-11-28T13:52:16.318Z,7.90
2017-11-28T13:54:43.369Z,7.90
2017-11-28T13:57:10.442Z,7.90
2017-11-28T13:59:37.526Z,7.80
2017-11-28T14:02:04.580Z,7.80
2017-11-28T14:04:31.644Z,7.80
2017-11-28T14:06:58.719Z,7.80
2017-11-28T14:09:25.792Z,7.80
2017-11-28T14:11:52.875Z,7.80
2017-11-28T14:14:19.939Z,7.90
2017-11-28T14:16:47.025Z,7.80
2017-11-28T14:19:14.854Z,7.80
2017-11-28T14:21:44.791Z,7.80
2017-11-28T14:24:27.569Z,7.80
2017-11-28T14:27:00.220Z,7.70
2017-11-28T14:29:33.751Z,7.60
2017-11-28T14:32:02.249Z,7.60
2017-11-28T14:34:29.359Z,7.70
2017-11-28T14:36:59.088Z,7.70
2017-11-28T14:39:26.916Z,7.60
2017-11-28T14:41:53.956Z,7.60
2017-11-28T14:44:21.054Z,7.60
2017-11-28T14:46:48.166Z,7.50
2017-11-28T14:49:16.004Z,7.50
2017-11-28T14:51:47.620Z,7.50
2017-11-28T14:54:21.237Z,7.50
2017-11-28T14:57:06.049Z,7.50
2017-11-28T14:59:39.728Z,7.50
2017-11-28T15:02:17.335Z,7.40
2017-11-28T15:04:50.115Z,7.30
2017-11-28T15:07:32.081Z,7.30
2017-11-28T15:09:59.867Z,7.40
2017-11-28T15:12:33.344Z,7.40
2017-11-28T15:15:06.227Z,7.30
2017-11-28T15:17:43.225Z,7.30
2017-11-28T15:20:27.184Z,7.30
2017-11-28T15:22:55.023Z,7.40
2017-11-28T15:25:37.909Z,7.30
2017-11-28T15:28:05.390Z,7.40
2017-11-28T15:30:33.166Z,7.40
2017-11-28T15:33:00.225Z,7.40
2017-11-28T15:35:27.401Z,7.40
2017-11-28T15:37:55.296Z,7.20
2017-11-28T15:40:23.181Z,7.20
2017-11-28T15:42:50.248Z,7.20
2017-11-28T15:45:17.377Z,7.20
2017-11-28T15:47:44.634Z,7.30
2017-11-28T15:50:11.816Z,7.30
2017-11-28T15:52:38.907Z,7.30
2017-11-28T15:55:06.744Z,7.20
2017-11-28T15:57:33.823Z,7.20
2017-11-28T16:00:04.950Z,7.30
2017-11-28T16:02:32.067Z,7.20
2017-11-28T16:04:59.146Z,7.30
2017-11-28T16:07:26.316Z,7.20
2017-11-28T16:09:54.349Z,7.30
2017-11-28T16:12:21.424Z,7.30
2017-11-28T16:14:48.549Z,7.30
2017-11-28T16:17:16.086Z,7.30
2017-11-28T16:19:43.148Z,7.20
2017-11-28T16:22:10.216Z,7.30
2017-11-28T16:24:37.304Z,7.30
2017-11-28T16:27:05.326Z,7.20
2017-11-28T16:29:32.430Z,7.20
2017-11-28T16:32:00.284Z,7.20
2017-11-28T16:34:29.184Z,7.10
2017-11-28T16:36:57.040Z,7.20
2017-11-28T16:39:24.994Z,7.20
2017-11-28T16:41:52.128Z,7.20
2017-11-28T16:44:19.187Z,7.30
2017-11-28T16:46:46.253Z,7.30
2017-11-28T16:49:13.516Z,7.20
2017-11-28T16:51:41.361Z,7.20
2017-11-28T16:54:08.445Z,7.10
2017-11-28T16:56:35.542Z,7.10
2017-11-28T16:59:02.711Z,7.20
2017-11-28T17:01:30.560Z,7.20
2017-11-28T17:03:57.647Z,7.20
2017-11-28T17:06:25.472Z,7.20
2017-11-28T17:08:52.626Z,7.20
2017-11-28T17:11:19.717Z,7.20
2017-11-28T17:13:47.547Z,7.20
2017-11-28T17:16:14.641Z,7.20
2017-11-28T17:18:41.720Z,7.20
2017-11-28T17:21:08.788Z,7.10
2017-11-28T17:23:35.878Z,7.10
2017-11-28T17:26:03.712Z,7.10
2017-11-28T17:28:30.815Z,7.10
2017-11-28T17:30:57.883Z,7.10
2017-11-28T17:33:24.966Z,7.10
2017-11-28T17:35:52.023Z,7.10
2017-11-28T17:38:19.871Z,7.20
2017-11-28T17:40:46.948Z,7.20
2017-11-28T17:43:14.791Z,7.20
2017-11-28T17:45:43.613Z,7.20
2017-11-28T17:48:10.707Z,7.10
2017-11-28T17:50:37.757Z,7.10
2017-11-28T17:53:04.860Z,7.10
2017-11-28T17:55:33.211Z,7.10
2017-11-28T17:58:00.334Z,7.10
2017-11-28T18:00:27.398Z,7.20
2017-11-28T18:02:54.511Z,7.10
2017-11-28T18:05:22.250Z,7.20
2017-11-28T18:07:50.105Z,7.10
2017-11-28T18:10:18.128Z,7.10
2017-11-28T18:12:45.243Z,7.10
2017-11-28T18:15:13.106Z,7.10
2017-11-28T18:17:40.944Z,7.10
2017-11-28T18:20:08.023Z,7.10
2017-11-28T18:22:35.907Z,7.00
2017-11-28T18:25:02.981Z,7.00
2017-11-28T18:27:30.062Z,7.00
2017-11-28T18:29:57.163Z,7.00
2017-11-28T18:32:24.221Z,7.00
2017-11-28T18:34:51.314Z,7.00
2017-11-28T18:37:18.422Z,7.10
2017-11-28T18:39:45.868Z,7.10
2017-11-28T18:42:12.978Z,7.10
2017-11-28T18:44:40.049Z,7.10
2017-11-28T18:47:07.114Z,7.10
2017-11-28T18:49:34.181Z,7.00
2017-11-28T18:52:01.309Z,7.10
2017-11-28T18:54:28.369Z,7.00
2017-11-28T18:56:55.446Z,7.10
2017-11-28T18:59:22.536Z,7.10
2017-11-28T19:01:50.409Z,7.00
2017-11-28T19:04:18.256Z,7.00
2017-11-28T19:06:45.336Z,7.00
2017-11-28T19:09:12.436Z,7.00
2017-11-28T19:11:39.516Z,7.00
2017-11-28T19:14:07.369Z,6.90
2017-11-28T19:16:34.491Z,6.90
2017-11-28T19:19:01.553Z,7.00
2017-11-28T19:21:28.614Z,6.90
2017-11-28T19:23:55.698Z,7.00
2017-11-28T19:42:58.328Z,6.90
2017-11-28T19:45:25.457Z,6.90
2017-11-28T19:47:52.537Z,6.90
2017-11-28T19:50:19.681Z,6.90
2017-11-28T19:52:46.760Z,6.80
2017-11-28T19:55:14.592Z,6.80
2017-11-28T19:57:41.679Z,6.80
2017-11-28T20:00:09.853Z,6.90
2017-11-28T20:02:37.745Z,7.00
2017-11-28T20:05:04.830Z,7.00
2017-11-28T20:07:32.060Z,7.00
2017-11-28T20:09:59.198Z,7.00
2017-11-28T20:12:26.285Z,6.90
2017-11-28T20:14:53.353Z,7.00
2017-11-28T20:17:20.408Z,7.00
2017-11-28T20:19:47.463Z,6.90
2017-11-28T20:22:14.589Z,7.00
2017-11-28T20:24:41.685Z,6.90
2017-11-28T20:27:10.801Z,7.00
2017-11-28T20:29:37.903Z,7.00
2017-11-28T20:32:05.816Z,7.10
2017-11-28T20:34:32.884Z,7.00
2017-11-28T20:36:59.983Z,7.10
2017-11-28T20:39:28.927Z,6.90
2017-11-28T20:41:57.174Z,6.90
2017-11-28T20:44:25.370Z,6.90
2017-11-28T20:46:52.509Z,6.90
2017-11-28T20:49:25.394Z,6.90
2017-11-28T20:51:52.485Z,6.80
2017-11-28T20:54:19.547Z,6.80
2017-11-28T20:56:47.399Z,6.80
2017-11-28T20:59:14.512Z,6.80
2017-11-28T21:01:41.589Z,6.70
2017-11-28T21:04:09.501Z,6.60
2017-11-28T21:06:37.505Z,6.60
2017-11-28T21:09:04.573Z,6.60
2017-11-28T21:11:31.665Z,6.60
2017-11-28T21:13:59.547Z,6.60
2017-11-28T21:16:26.621Z,6.60
2017-11-28T21:18:53.723Z,6.70
2017-11-28T21:21:21.581Z,6.70
2017-11-28T21:23:48.698Z,6.70
2017-11-28T21:26:15.824Z,6.70
2017-11-28T21:28:42.946Z,6.70
2017-11-28T21:31:10.789Z,6.80
2017-11-28T21:33:37.862Z,6.80
2017-11-28T21:36:05.773Z,6.70
2017-11-28T21:38:32.832Z,6.70
2017-11-28T21:40:59.888Z,6.70
2017-11-28T21:43:26.955Z,6.70
2017-11-28T21:45:54.031Z,6.80
2017-11-28T21:48:21.837Z,6.70
2017-11-28T21:50:49.160Z,6.70
2017-11-28T21:53:16.221Z,6.70
2017-11-28T21:55:43.327Z,6.70
2017-11-28T21:58:11.201Z,6.60
2017-11-28T22:00:39.070Z,6.70
2017-11-28T22:03:06.144Z,6.60
2017-11-28T22:05:33.213Z,6.70
2017-11-28T22:08:00.321Z,6.60
2017-11-28T22:10:28.218Z,6.60
2017-11-28T22:12:55.283Z,6.60
2017-11-28T22:15:22.385Z,6.60
2017-11-28T22:17:50.232Z,6.60
2017-11-28T22:20:17.286Z,6.50
2017-11-28T22:22:44.356Z,6.60
2017-11-28T22:25:12.182Z,6.60
2017-11-28T22:27:39.258Z,6.60
2017-11-28T22:30:06.352Z,6.60
2017-11-28T22:32:33.430Z,6.50
2017-11-28T22:35:00.504Z,6.50
2017-11-28T22:37:27.595Z,6.40
2017-11-28T22:39:54.715Z,6.40
2017-11-28T22:42:22.546Z,6.50
2017-11-28T22:44:49.629Z,6.40
2017-11-28T22:47:17.495Z,6.40
2017-11-28T22:49:45.566Z,6.30
2017-11-28T22:52:13.387Z,6.30
2017-11-28T22:54:40.443Z,6.30
2017-11-28T22:57:07.499Z,6.30
2017-11-28T22:59:34.601Z,6.30
2017-11-28T23:02:02.496Z,6.30
2017-11-28T23:04:29.624Z,6.30
2017-11-28T23:06:56.688Z,6.30
2017-11-28T23:09:23.796Z,6.30
2017-11-28T23:11:51.621Z,6.40
2017-11-28T23:14:24.494Z,6.40
2017-11-28T23:16:51.625Z,6.30
2017-11-28T23:19:18.792Z,6.30
2017-11-28T23:21:45.905Z,6.20
2017-11-28T23:24:13.787Z,6.20
2017-11-28T23:26:40.906Z,6.20
2017-11-28T23:29:08.810Z,6.10
2017-11-28T23:31:36.013Z,6.10
2017-11-28T23:34:03.223Z,6.10
2017-11-28T23:36:30.350Z,6.00
2017-11-28T23:38:58.255Z,6.10
2017-11-28T23:41:25.323Z,6.10
2017-11-28T23:43:52.441Z,6.00
2017-11-28T23:46:19.498Z,6.00
2017-11-28T23:48:46.553Z,6.00
2017-11-28T23:51:13.646Z,6.10
2017-11-28T23:53:40.701Z,6.00
2017-11-28T23:56:08.554Z,6.10
2017-11-28T23:58:35.646Z,6.00
